sim
Sign-in with your pilot id or email,
or register
Callsign
Passwort

Schedule Details

Flight Number: DLH2147 (2)
Departure: Stuttgart Airport (EDDS) at 12:40
Arrival: Munich Airport (EDDM) at 13:25
Route: Lufthansa Passenger Schedule. Enter filed route here before submitting Pirep.

Weather Information
Getting current METAR information for EDDS 211120Z VRB03KT 9999 FEW044 24/13 Q1016 NOSIG
Getting current METAR information for EDDM 211120Z 06004KT 010V130 CAVOK 21/13 Q1017 NOSIG

Schedule Frequency

Route Map